Antonio Ramos — CUCT9 — position and weather

sailwx.info

Track history (hours):
 
Tides and Currents Weather Stations Pressure Air Temp Water Temp Dewpoint Dewpoint Depression Visibility Wind Speed Wind Dir Waves Ship Positions

Antonio Ramos

Last reported at 2017-Sep-21 20:24 UTC. Time now 2017-Sep-23 04:10 UTC.
Position N 39°17' W 009°27'.

Length 15 m.

Type: Fishing. MMSI: 263406740.

Date/timePositionNaut miles runAvg speedWind from/ knotsBaromVisibWave heightAir tempDewpointWater temp
2017-Sep-21 20:24N 39°17' W 009°27'2 3.8
2017-Sep-21 19:59N 39°16' W 009°29'1 2.4
2017-Sep-21 19:30N 39°15' W 009°29'1 2.3
2017-Sep-21 19:00N 39°13' W 009°29'1 2.4
2017-Sep-21 18:30N 39°12' W 009°30'2 3.2
2017-Sep-21 18:00N 39°11' W 009°30'3 6.6
2017-Sep-21 17:30N 39°08' W 009°32'3 6.7
2017-Sep-21 17:00N 39°05' W 009°35'4 0.6
2017-Sep-21 09:52N 39°02' W 009°38'1 2.8
2017-Sep-21 09:30N 39°02' W 009°36'8 1.6
2017-Sep-21 04:47N 38°54' W 009°36'1 2.3
2017-Sep-21 04:30N 38°54' W 009°36'1 2.5
2017-Sep-21 04:01N 38°53' W 009°37'1 2.5
2017-Sep-21 03:31N 38°51' W 009°37'1 2.6
2017-Sep-21 03:01N 38°50' W 009°38'1 2.6
2017-Sep-21 02:30N 38°49' W 009°39'2 2.9
2017-Sep-21 01:42N 38°47' W 009°38'1 7.1
2017-Sep-21 01:31N 38°46' W 009°37'4 7.2
2017-Sep-21 01:00N 38°43' W 009°33'4 7.0
2017-Sep-21 00:30N 38°41' W 009°30'3 6.8
2017-Sep-21 00:01N 38°41' W 009°26'0 0.0
2017-Sep-20 14:00N 38°41' W 009°25'4 7.3
2017-Sep-20 13:30N 38°38' W 009°29'3 6.8
2017-Sep-20 13:01N 38°36' W 009°32'5 1.3
2017-Sep-20 09:11N 38°40' W 009°36'1 3.6
2017-Sep-20 09:00N 38°40' W 009°36'17 3.9
2017-Sep-20 04:37N 38°57' W 009°34'1 7.8
2017-Sep-20 04:30N 38°58' W 009°34'4 7.7
2017-Sep-20 04:01N 39°02' W 009°32'4 7.3
2017-Sep-20 03:30N 39°05' W 009°30'4 7.1
2017-Sep-20 03:00N 39°09' W 009°29'4 7.3
2017-Sep-20 02:29N 39°12' W 009°27'3 7.2
2017-Sep-20 02:00N 39°15' W 009°26'  
2017-Sep-14 20:50N 39°15' W 009°27'2 6.1
2017-Sep-14 20:29N 39°13' W 009°29'1 2.2
2017-Sep-14 20:00N 39°14' W 009°29'1 2.4
2017-Sep-14 19:28N 39°16' W 009°28'1 2.4
2017-Sep-14 19:00N 39°14' W 009°28'1 2.4
2017-Sep-14 18:30N 39°13' W 009°29'1 2.4
2017-Sep-14 18:00N 39°12' W 009°29'2 3.8
2017-Sep-14 17:30N 39°11' W 009°30'3 6.1
2017-Sep-14 17:00N 39°08' W 009°33'3 6.1
2017-Sep-14 16:30N 39°05' W 009°35'3 0.3
2017-Sep-14 05:46N 39°03' W 009°38'1 4.7
2017-Sep-14 05:30N 39°04' W 009°38'4 7.4
2017-Sep-14 05:00N 39°07' W 009°34'4 7.3
2017-Sep-14 04:30N 39°10' W 009°31'2 4.3
2017-Sep-14 04:00N 39°12' W 009°30'1 2.6
2017-Sep-14 03:30N 39°13' W 009°29'1 2.6
2017-Sep-14 03:00N 39°14' W 009°29'2 2.9
2017-Sep-14 02:27N 39°16' W 009°28'3 0.2
2017-Sep-13 10:18N 39°18' W 009°26'2 6.9
2017-Sep-13 09:57N 39°16' W 009°28'3 6.9
2017-Sep-13 09:30N 39°14' W 009°30'4 7.1
2017-Sep-13 09:00N 39°11' W 009°33'3 6.8
2017-Sep-13 08:30N 39°08' W 009°36'3 6.8
2017-Sep-13 08:00N 39°06' W 009°39'3 0.4
2017-Sep-13 00:18N 39°02' W 009°38'2 7.2
2017-Sep-13 00:00N 39°04' W 009°37'4 7.4
2017-Sep-12 23:30N 39°07' W 009°34'4 7.5
2017-Sep-12 22:59N 39°10' W 009°31'3 7.2
2017-Sep-12 22:30N 39°13' W 009°29'1 2.3
2017-Sep-12 22:00N 39°14' W 009°29'1 2.2
2017-Sep-12 21:28N 39°16' W 009°28'1 2.4
2017-Sep-12 20:58N 39°14' W 009°28'1 2.4
2017-Sep-12 20:30N 39°13' W 009°29'1 2.4
2017-Sep-12 20:00N 39°12' W 009°29'1 1.2
2017-Sep-12 19:30N 39°12' W 009°30'1 2.5
2017-Sep-12 19:00N 39°13' W 009°29'2 2.5
2017-Sep-12 18:24N 39°14' W 009°29'1 2.5
2017-Sep-12 17:55N 39°15' W 009°28'1 2.6
2017-Sep-12 17:29N 39°14' W 009°28'1 2.5
2017-Sep-12 17:00N 39°13' W 009°29'1 2.5
2017-Sep-12 16:30N 39°12' W 009°29'1 1.4
2017-Sep-12 16:00N 39°11' W 009°30'1 2.5
2017-Sep-12 15:30N 39°13' W 009°29'1 2.6
2017-Sep-12 15:00N 39°14' W 009°29'1 2.6
2017-Sep-12 14:30N 39°15' W 009°29'0 0.7
2017-Sep-12 14:00N 39°15' W 009°28'1 2.4
2017-Sep-12 13:30N 39°14' W 009°29'1 2.3
2017-Sep-12 13:00N 39°13' W 009°29'4 0.4
2017-Sep-12 02:17N 39°16' W 009°28'  
Track history (hours):
 
Tides and Currents Weather Stations Pressure Air Temp Water Temp Dewpoint Dewpoint Depression Visibility Wind Speed Wind Dir Waves Ship Positions

Antonio Ramos

Last reported at 2017-Sep-21 20:24 UTC. Time now 2017-Sep-23 04:10 UTC.
Position N 39°17' W 009°27'.

Length 15 m.

Type: Fishing. MMSI: 263406740.

Date/timePositionNaut miles runAvg speedWind from/ knotsBaromVisibWave heightAir tempDewpointWater temp
2017-Sep-21 20:24N 39°17' W 009°27'2 3.8
2017-Sep-21 19:59N 39°16' W 009°29'1 2.4
2017-Sep-21 19:30N 39°15' W 009°29'1 2.3
2017-Sep-21 19:00N 39°13' W 009°29'1 2.4
2017-Sep-21 18:30N 39°12' W 009°30'2 3.2
2017-Sep-21 18:00N 39°11' W 009°30'3 6.6
2017-Sep-21 17:30N 39°08' W 009°32'3 6.7
2017-Sep-21 17:00N 39°05' W 009°35'4 0.6
2017-Sep-21 09:52N 39°02' W 009°38'1 2.8
2017-Sep-21 09:30N 39°02' W 009°36'8 1.6
2017-Sep-21 04:47N 38°54' W 009°36'1 2.3
2017-Sep-21 04:30N 38°54' W 009°36'1 2.5
2017-Sep-21 04:01N 38°53' W 009°37'1 2.5
2017-Sep-21 03:31N 38°51' W 009°37'1 2.6
2017-Sep-21 03:01N 38°50' W 009°38'1 2.6
2017-Sep-21 02:30N 38°49' W 009°39'2 2.9
2017-Sep-21 01:42N 38°47' W 009°38'1 7.1
2017-Sep-21 01:31N 38°46' W 009°37'4 7.2
2017-Sep-21 01:00N 38°43' W 009°33'4 7.0
2017-Sep-21 00:30N 38°41' W 009°30'3 6.8
2017-Sep-21 00:01N 38°41' W 009°26'0 0.0
2017-Sep-20 14:00N 38°41' W 009°25'4 7.3
2017-Sep-20 13:30N 38°38' W 009°29'3 6.8
2017-Sep-20 13:01N 38°36' W 009°32'5 1.3
2017-Sep-20 09:11N 38°40' W 009°36'1 3.6
2017-Sep-20 09:00N 38°40' W 009°36'17 3.9
2017-Sep-20 04:37N 38°57' W 009°34'1 7.8
2017-Sep-20 04:30N 38°58' W 009°34'4 7.7
2017-Sep-20 04:01N 39°02' W 009°32'4 7.3
2017-Sep-20 03:30N 39°05' W 009°30'4 7.1
2017-Sep-20 03:00N 39°09' W 009°29'4 7.3
2017-Sep-20 02:29N 39°12' W 009°27'3 7.2
2017-Sep-20 02:00N 39°15' W 009°26'  
2017-Sep-14 20:50N 39°15' W 009°27'2 6.1
2017-Sep-14 20:29N 39°13' W 009°29'1 2.2
2017-Sep-14 20:00N 39°14' W 009°29'1 2.4
2017-Sep-14 19:28N 39°16' W 009°28'1 2.4
2017-Sep-14 19:00N 39°14' W 009°28'1 2.4
2017-Sep-14 18:30N 39°13' W 009°29'1 2.4
2017-Sep-14 18:00N 39°12' W 009°29'2 3.8
2017-Sep-14 17:30N 39°11' W 009°30'3 6.1
2017-Sep-14 17:00N 39°08' W 009°33'3 6.1
2017-Sep-14 16:30N 39°05' W 009°35'3 0.3
2017-Sep-14 05:46N 39°03' W 009°38'1 4.7
2017-Sep-14 05:30N 39°04' W 009°38'4 7.4
2017-Sep-14 05:00N 39°07' W 009°34'4 7.3
2017-Sep-14 04:30N 39°10' W 009°31'2 4.3
2017-Sep-14 04:00N 39°12' W 009°30'1 2.6
2017-Sep-14 03:30N 39°13' W 009°29'1 2.6
2017-Sep-14 03:00N 39°14' W 009°29'2 2.9
2017-Sep-14 02:27N 39°16' W 009°28'3 0.2
2017-Sep-13 10:18N 39°18' W 009°26'2 6.9
2017-Sep-13 09:57N 39°16' W 009°28'3 6.9
2017-Sep-13 09:30N 39°14' W 009°30'4 7.1
2017-Sep-13 09:00N 39°11' W 009°33'3 6.8
2017-Sep-13 08:30N 39°08' W 009°36'3 6.8
2017-Sep-13 08:00N 39°06' W 009°39'3 0.4
2017-Sep-13 00:18N 39°02' W 009°38'2 7.2
2017-Sep-13 00:00N 39°04' W 009°37'4 7.4
2017-Sep-12 23:30N 39°07' W 009°34'4 7.5
2017-Sep-12 22:59N 39°10' W 009°31'3 7.2
2017-Sep-12 22:30N 39°13' W 009°29'1 2.3
2017-Sep-12 22:00N 39°14' W 009°29'1 2.2
2017-Sep-12 21:28N 39°16' W 009°28'1 2.4
2017-Sep-12 20:58N 39°14' W 009°28'1 2.4
2017-Sep-12 20:30N 39°13' W 009°29'1 2.4
2017-Sep-12 20:00N 39°12' W 009°29'1 1.2
2017-Sep-12 19:30N 39°12' W 009°30'1 2.5
2017-Sep-12 19:00N 39°13' W 009°29'2 2.5
2017-Sep-12 18:24N 39°14' W 009°29'1 2.5
2017-Sep-12 17:55N 39°15' W 009°28'1 2.6
2017-Sep-12 17:29N 39°14' W 009°28'1 2.5
2017-Sep-12 17:00N 39°13' W 009°29'1 2.5
2017-Sep-12 16:30N 39°12' W 009°29'1 1.4
2017-Sep-12 16:00N 39°11' W 009°30'1 2.5
2017-Sep-12 15:30N 39°13' W 009°29'1 2.6
2017-Sep-12 15:00N 39°14' W 009°29'1 2.6
2017-Sep-12 14:30N 39°15' W 009°29'0 0.7
2017-Sep-12 14:00N 39°15' W 009°28'1 2.4
2017-Sep-12 13:30N 39°14' W 009°29'1 2.3
2017-Sep-12 13:00N 39°13' W 009°29'4 0.4
2017-Sep-12 02:17N 39°16' W 009°28'  

Dump ship's entire track history